»·PEaware :: N46AN KVNY-KSNA

N46AN :: KVNY-KSNA

FLIGHT INFORMATION

Flight Status: Arrived
Operator: Privately registered:
United States
More flights under this callsign
Pilot: Carson T. (20437)
Aircraft: CESSNA 172 SKYHAWK
(C172)
More flights by this aircraft type
Origin: KVNY Van Nuys
United States
Destination: KSNA John Wayne-Orange Co
United States
More flights between these airports :: More routes between these airports
Route: +
File this flight plan on PilotEdge
Remarks:
Altitude:
(Current/Filed)
4,500ft
Speed:
(Current/Filed)
125kts
Departed: 16-Sep-18 04:40 PM
Arrived: 16-Sep-18 05:22 PM
Distance/Time
Traveled:
44nm/0:42
Distance/Time
To Go:
Arrived

Flight Plot

Page will automatically refresh every two minutes.


Map Options




Map Legend


Flown Route
Filed Route
Departure Airport
Arrival Airport
Navaid (VOR, NDB)
Fix

Horizontal Profiles

Position Reports

Time Latitude Longitude Heading Altitude Ground
Speed
16-Sep-18 16:20 34.205680 -118.492229 120 805ft 0kts
16-Sep-18 16:21 34.205680 -118.492229 120 805ft 0kts
16-Sep-18 16:22 34.205680 -118.492229 120 805ft 0kts
16-Sep-18 16:23 34.206032 -118.491161 0 805ft 5kts
16-Sep-18 16:24 34.208528 -118.491379 355 805ft 8kts
16-Sep-18 16:25 34.211752 -118.491659 356 805ft 11kts
16-Sep-18 16:26 34.214941 -118.491919 356 805ft 11kts
16-Sep-18 16:27 34.218025 -118.491796 85 805ft 0kts
16-Sep-18 16:28 34.218025 -118.491796 85 805ft 0kts
16-Sep-18 16:29 34.218054 -118.491596 79 805ft 6kts
16-Sep-18 16:33 34.204922 -118.492382 268 805ft 0kts
16-Sep-18 16:34 34.204922 -118.492360 88 805ft 0kts
16-Sep-18 16:35 34.204922 -118.492359 88 805ft 0kts
16-Sep-18 16:36 34.204913 -118.491297 79 805ft 13kts
16-Sep-18 16:37 34.210381 -118.491547 356 805ft 19kts
16-Sep-18 16:38 34.214800 -118.491913 356 805ft 13kts
16-Sep-18 16:39 34.218021 -118.491875 82 805ft 0kts
16-Sep-18 16:40 34.218022 -118.491871 82 805ft 0kts
16-Sep-18 16:41 34.218024 -118.491855 82 805ft 1kts
16-Sep-18 16:42 34.204675 -118.490021 176 1089ft 76kts
16-Sep-18 16:43 34.185379 -118.495998 224 1830ft 78kts
16-Sep-18 16:44 34.168275 -118.516322 222 2398ft 92kts
16-Sep-18 16:45 34.142641 -118.533746 198 2535ft 118kts
16-Sep-18 16:46 34.112592 -118.532985 155 2912ft 113kts
16-Sep-18 16:47 34.086316 -118.517570 156 3437ft 98kts
16-Sep-18 16:48 34.062363 -118.504378 155 4006ft 91kts
16-Sep-18 16:49 34.039298 -118.491478 155 4427ft 101kts
16-Sep-18 16:50 34.013723 -118.499635 257 4401ft 120kts
16-Sep-18 16:51 34.034337 -118.525888 331 4503ft 120kts
16-Sep-18 16:52 34.064082 -118.545119 331 4500ft 122kts
16-Sep-18 16:53 34.093509 -118.564104 331 4537ft 118kts
16-Sep-18 16:54 34.118567 -118.580227 331 5142ft 89kts
16-Sep-18 16:55 34.139731 -118.593745 332 5531ft 97kts
16-Sep-18 16:56 34.167497 -118.604266 20 5502ft 116kts
16-Sep-18 16:57 34.183559 -118.571618 79 5499ft 118kts
16-Sep-18 16:58 34.161164 -118.553010 168 5496ft 105kts
16-Sep-18 16:59 34.132247 -118.542444 161 5506ft 114kts
16-Sep-18 17:00 34.102485 -118.526866 155 5500ft 118kts
16-Sep-18 17:01 34.072472 -118.510076 155 5500ft 118kts
16-Sep-18 17:02 34.041961 -118.493013 155 5501ft 123kts
16-Sep-18 17:03 34.010714 -118.475550 155 5500ft 124kts
16-Sep-18 17:04 33.979413 -118.458058 155 5500ft 124kts
16-Sep-18 17:05 33.948116 -118.440543 155 5500ft 124kts
16-Sep-18 17:06 33.919494 -118.417571 139 5500ft 124kts
16-Sep-18 17:07 33.893559 -118.390170 138 5500ft 124kts
16-Sep-18 17:08 33.867692 -118.362649 138 5500ft 124kts
16-Sep-18 17:09 33.841826 -118.335133 138 5500ft 124kts
16-Sep-18 17:10 33.815946 -118.307607 138 5500ft 124kts
16-Sep-18 17:11 33.795557 -118.281485 86 5481ft 92kts
16-Sep-18 17:12 33.791662 -118.248148 104 4936ft 110kts
16-Sep-18 17:13 33.783584 -118.211857 105 4241ft 112kts
16-Sep-18 17:14 33.774975 -118.173708 105 3588ft 131kts
16-Sep-18 17:15 33.765635 -118.132566 105 3499ft 125kts
16-Sep-18 17:16 33.756444 -118.092132 105 3499ft 124kts
16-Sep-18 17:17 33.747338 -118.052061 104 3500ft 124kts
16-Sep-18 17:18 33.738228 -118.011626 105 3500ft 124kts
16-Sep-18 17:19 33.729051 -117.971395 105 3500ft 124kts
16-Sep-18 17:20 33.719938 -117.931997 107 3364ft 114kts
16-Sep-18 17:21 33.708076 -117.898154 118 2436ft 97kts
16-Sep-18 17:22 33.696277 -117.872155 118 1313ft 78kts
16-Sep-18 17:23 33.680133 -117.866011 208 66ft 64kts
16-Sep-18 17:24 33.675698 -117.869606 297 59ft 0kts
16-Sep-18 17:25 33.676592 -117.869978 11 59ft 11kts
16-Sep-18 17:26 33.677133 -117.870825 297 59ft 0kts
16-Sep-18 17:27 33.677133 -117.870825 297 59ft 0kts
16-Sep-18 17:28 33.677133 -117.870825 297 59ft 0kts
16-Sep-18 17:29 33.677133 -117.870825 297 59ft 0kts
16-Sep-18 17:30 33.677133 -117.870825 297 59ft 0kts
16-Sep-18 17:31 33.677133 -117.870825 297 59ft 0kts
16-Sep-18 17:32 33.677133 -117.870825 297 59ft 0kts
16-Sep-18 17:33 33.677133 -117.870825 297 59ft 0kts
16-Sep-18 17:34 33.677133 -117.870825 297 59ft 0kts
16-Sep-18 17:35 33.677133 -117.870825 297 59ft 0kts
16-Sep-18 17:36 33.677133 -117.870825 297 59ft 0kts
16-Sep-18 17:37 33.677133 -117.870825 297 59ft 0kts
16-Sep-18 17:38 33.677133 -117.870825 297 59ft 0kts

Navigation Log

Ident Type
1. KVNY Airport
2. KSNA Airport